Airfield :







YOU CAN JOIN US ON...

 
LOGIN :

Register | Disclaimer

   EN    FR    IT 

 









Legend :    VFR   Marginal VFR   IFR   Intensive IFR   Very Intensive IFR
Visi :
Ceiling :
>= 8 km
>= 3000ft
5 to 8 km
1000 to 3000 ft
1500m to 5 km
500 to 1000 ft
800 to 1500m
200 to 500 ft
< 800m
< 200 ft
Symbols :   Thunderstorms  Fog  Heavy snow  Heavy precipitations  Wind > 20 kt







- Airport Elevation : 100 ft
- IATA code : PSM


KPSM - Portsmouth International at Pease

CURRENT METAR :
  • 210956Z 27004KT 10SM CLR 13/12 A3013 RMK AO2A SLP205 T01330115

EXPIRED METARs :
  • 210856Z 00000KT 10SM CLR 13/11 A3012 RMK AO2A SLP202 T01310110 53006
  • 210756Z 27005KT 10SM CLR 14/11 A3011 RMK AO2A SLP198 T01400108

TAF KPSM
Valid from the 21 at 09:00 until the 22 at 06:00 UTC


210901Z 2109/2206 28003KT P6SM SKC
FM211700 14006KT P6SM FEW250
No reported NOTAMs for that airfield.



MET'MAP, your aeronautical weather chart ! - Copyright ORBIFLY December 2007 - Disclaimer

ORBIFLY MET'MAP TEAM :

Programming & Development : Alexandra Zaïnal
Concept & Development : Baudouin d'Aumeries
Co-Development & Prog : Marc-Olivier Méhu
Technical & hardware support : Manuel Goepfert

Contact : metmap@orbifly.com




SOURCES & CREDITS :

   NOAA